GES001 LIMJ-EDVK
Flight info
| Callsign | GES001 |
|---|---|
| Flight time | N/A |
| Altitude | 47000 |
| Route | GEN DCT ABESI N851 UTAVO DCT ROMIR N851 RIMKI Z99 ELNAT |
| Aircraft | GLF5/M-SBDE2E3FGHIJ3J4J5P2RWXY/LB1D1 |
Departure
| Time | N/A |
|---|---|
| Airport | Genoa Cristoforo Colombo Airport (LIMJ) |
Arrival
| Time | 2026-04-26 23:01 |
|---|---|
| Airport | Kassel Airport (EDVK) |
| Time | Latitude | Longitude | Altitude | Speed | Heading |
|---|---|---|---|---|---|
| 2026-04-26 22:32 | 48.77996 | 9.30349 | 49230 ft | 473 kts | 8° |
| 2026-04-26 22:32 | 48.81226 | 9.31239 | 49229 ft | 472 kts | 8° |
| 2026-04-26 22:32 | 48.87712 | 9.33029 | 49221 ft | 472 kts | 8° |
| 2026-04-26 22:33 | 48.97469 | 9.33531 | 49220 ft | 469 kts | 355° |
| 2026-04-26 22:34 | 49.03988 | 9.33014 | 49135 ft | 459 kts | 355° |
| 2026-04-26 22:34 | 49.07157 | 9.32762 | 49043 ft | 444 kts | 355° |
| 2026-04-26 22:34 | 49.10200 | 9.32519 | 48968 ft | 430 kts | 355° |
| 2026-04-26 22:34 | 49.13173 | 9.32281 | 48824 ft | 428 kts | 355° |
| 2026-04-26 22:35 | 49.16181 | 9.32038 | 48359 ft | 438 kts | 354° |
| 2026-04-26 22:35 | 49.19269 | 9.31790 | 47805 ft | 446 kts | 355° |
| 2026-04-26 22:35 | 49.22389 | 9.31542 | 47207 ft | 448 kts | 355° |
| 2026-04-26 22:35 | 49.25517 | 9.31301 | 46603 ft | 445 kts | 355° |
| 2026-04-26 22:36 | 49.28568 | 9.31064 | 46021 ft | 441 kts | 355° |
| 2026-04-26 22:36 | 49.31654 | 9.30825 | 45427 ft | 438 kts | 355° |
| 2026-04-26 22:36 | 49.34737 | 9.30595 | 44863 ft | 435 kts | 356° |
| 2026-04-26 22:36 | 49.37782 | 9.30860 | 44302 ft | 435 kts | 3° |
| 2026-04-26 22:37 | 49.40809 | 9.31320 | 43726 ft | 435 kts | 3° |
| 2026-04-26 22:37 | 49.43819 | 9.31768 | 43148 ft | 435 kts | 3° |
| 2026-04-26 22:37 | 49.46854 | 9.32218 | 42561 ft | 433 kts | 3° |
| 2026-04-26 22:37 | 49.49831 | 9.32659 | 41989 ft | 431 kts | 2° |
| 2026-04-26 22:38 | 49.50815 | 9.32805 | 41799 ft | 430 kts | 3° |
| 2026-04-26 22:39 | 49.73944 | 9.36248 | 37199 ft | 424 kts | 3° |
| 2026-04-26 22:40 | 49.76884 | 9.37127 | 36647 ft | 427 kts | 11° |
| 2026-04-26 22:40 | 49.79681 | 9.38213 | 36184 ft | 428 kts | 11° |
| 2026-04-26 22:40 | 49.82509 | 9.39303 | 35652 ft | 429 kts | 11° |
| 2026-04-26 22:40 | 49.85422 | 9.40423 | 35083 ft | 428 kts | 10° |
| 2026-04-26 22:41 | 49.88334 | 9.41545 | 34484 ft | 427 kts | 10° |
| 2026-04-26 22:41 | 49.91243 | 9.42664 | 33876 ft | 428 kts | 10° |
| 2026-04-26 22:41 | 49.94144 | 9.43782 | 33296 ft | 430 kts | 10° |
| 2026-04-26 22:41 | 49.97067 | 9.44910 | 32543 ft | 434 kts | 10° |
| 2026-04-26 22:42 | 50.00005 | 9.46045 | 31862 ft | 433 kts | 10° |
| 2026-04-26 22:42 | 50.02911 | 9.47169 | 31279 ft | 434 kts | 10° |
| 2026-04-26 22:42 | 50.05857 | 9.48309 | 30690 ft | 426 kts | 9° |
| 2026-04-26 22:42 | 50.08739 | 9.48986 | 30115 ft | 409 kts | 2° |
| 2026-04-26 22:43 | 50.11438 | 9.49413 | 29601 ft | 398 kts | 2° |
| 2026-04-26 22:43 | 50.13796 | 9.49790 | 29157 ft | 395 kts | 2° |
| 2026-04-26 22:43 | 50.16810 | 9.50276 | 28590 ft | 395 kts | 2° |
| 2026-04-26 22:43 | 50.19544 | 9.50717 | 28065 ft | 394 kts | 2° |
| 2026-04-26 22:44 | 50.22253 | 9.51157 | 27546 ft | 392 kts | 2° |
| 2026-04-26 22:44 | 50.24958 | 9.51597 | 27029 ft | 389 kts | 2° |
| 2026-04-26 22:44 | 50.27639 | 9.52033 | 26521 ft | 386 kts | 2° |
| 2026-04-26 22:44 | 50.28558 | 9.52182 | 26347 ft | 385 kts | 2° |
| 2026-04-26 22:45 | 50.40582 | 9.54146 | 24049 ft | 376 kts | 2° |
| 2026-04-26 22:46 | 50.43175 | 9.54571 | 23555 ft | 374 kts | 2° |
| 2026-04-26 22:46 | 50.45753 | 9.54993 | 23071 ft | 373 kts | 2° |
| 2026-04-26 22:46 | 50.48347 | 9.55419 | 22578 ft | 370 kts | 2° |
| 2026-04-26 22:46 | 50.50915 | 9.55841 | 22084 ft | 367 kts | 2° |
| 2026-04-26 22:47 | 50.53464 | 9.56260 | 21591 ft | 365 kts | 2° |
| 2026-04-26 22:47 | 50.55970 | 9.56674 | 21105 ft | 364 kts | 2° |
| 2026-04-26 22:47 | 50.58501 | 9.57092 | 20622 ft | 361 kts | 2° |
| 2026-04-26 22:47 | 50.61021 | 9.57552 | 20139 ft | 360 kts | 4° |
| 2026-04-26 22:48 | 50.63511 | 9.58029 | 19655 ft | 357 kts | 4° |
| 2026-04-26 22:48 | 50.66007 | 9.58507 | 19174 ft | 355 kts | 4° |
| 2026-04-26 22:48 | 50.68440 | 9.58973 | 18706 ft | 353 kts | 4° |
| 2026-04-26 22:48 | 50.70872 | 9.59440 | 18237 ft | 350 kts | 4° |
| 2026-04-26 22:49 | 50.73309 | 9.59908 | 17770 ft | 348 kts | 4° |
| 2026-04-26 22:49 | 50.75723 | 9.60373 | 17303 ft | 345 kts | 4° |
| 2026-04-26 22:49 | 50.78128 | 9.60838 | 16841 ft | 343 kts | 4° |
| 2026-04-26 22:49 | 50.80492 | 9.61295 | 16386 ft | 340 kts | 4° |
| 2026-04-26 22:50 | 50.82848 | 9.61751 | 15930 ft | 337 kts | 4° |
| 2026-04-26 22:50 | 50.85209 | 9.62209 | 15480 ft | 335 kts | 4° |
| 2026-04-26 22:50 | 50.87545 | 9.62663 | 15030 ft | 331 kts | 4° |
| 2026-04-26 22:50 | 50.89864 | 9.63112 | 14588 ft | 329 kts | 4° |
| 2026-04-26 22:51 | 50.92126 | 9.63552 | 14148 ft | 326 kts | 4° |
| 2026-04-26 22:51 | 50.94434 | 9.64002 | 13711 ft | 324 kts | 4° |
| 2026-04-26 22:51 | 50.96650 | 9.64433 | 13283 ft | 323 kts | 4° |
| 2026-04-26 22:51 | 50.98891 | 9.64869 | 12845 ft | 321 kts | 5° |
| 2026-04-26 22:52 | 51.01105 | 9.65301 | 12422 ft | 319 kts | 5° |
| 2026-04-26 22:52 | 51.03321 | 9.65735 | 11998 ft | 317 kts | 5° |
| 2026-04-26 22:52 | 51.05510 | 9.66163 | 11578 ft | 315 kts | 5° |
| 2026-04-26 22:52 | 51.07719 | 9.66596 | 11151 ft | 311 kts | 5° |
| 2026-04-26 22:53 | 51.09868 | 9.67017 | 10737 ft | 307 kts | 6° |
| 2026-04-26 22:53 | 51.11976 | 9.67432 | 10327 ft | 297 kts | 6° |
| 2026-04-26 22:53 | 51.13995 | 9.67829 | 9952 ft | 289 kts | 6° |
| 2026-04-26 22:53 | 51.15964 | 9.68216 | 9574 ft | 282 kts | 6° |
| 2026-04-26 22:54 | 51.17909 | 9.68600 | 9198 ft | 276 kts | 6° |
| 2026-04-26 22:54 | 51.19797 | 9.68973 | 8832 ft | 270 kts | 6° |
| 2026-04-26 22:54 | 51.21615 | 9.69620 | 8473 ft | 268 kts | 14° |
| 2026-04-26 22:54 | 51.23402 | 9.70443 | 8119 ft | 264 kts | 14° |
| 2026-04-26 22:55 | 51.25155 | 9.71248 | 7769 ft | 260 kts | 14° |
| 2026-04-26 22:55 | 51.26908 | 9.72052 | 7420 ft | 256 kts | 14° |
| 2026-04-26 22:55 | 51.28604 | 9.72829 | 7083 ft | 252 kts | 14° |
| 2026-04-26 22:55 | 51.30295 | 9.73505 | 6744 ft | 247 kts | 7° |
| 2026-04-26 22:56 | 51.31996 | 9.73769 | 6426 ft | 243 kts | 4° |
| 2026-04-26 22:56 | 51.33664 | 9.74007 | 6103 ft | 240 kts | 5° |
| 2026-04-26 22:56 | 51.35360 | 9.74250 | 5780 ft | 238 kts | 5° |
| 2026-04-26 22:56 | 51.37017 | 9.74490 | 5463 ft | 236 kts | 5° |
| 2026-04-26 22:57 | 51.38634 | 9.74412 | 5137 ft | 233 kts | 342° |
| 2026-04-26 22:57 | 51.39876 | 9.72853 | 4836 ft | 234 kts | 305° |
| 2026-04-26 22:57 | 51.40412 | 9.70365 | 4489 ft | 236 kts | 278° |
| 2026-04-26 22:57 | 51.40521 | 9.67839 | 4186 ft | 214 kts | 276° |
| 2026-04-26 22:58 | 51.40628 | 9.65620 | 3937 ft | 190 kts | 277° |
| 2026-04-26 22:58 | 51.40741 | 9.63533 | 3672 ft | 189 kts | 277° |
| 2026-04-26 22:58 | 51.40858 | 9.61405 | 3407 ft | 190 kts | 277° |
| 2026-04-26 22:58 | 51.40975 | 9.59302 | 3147 ft | 190 kts | 277° |
| 2026-04-26 22:59 | 51.41092 | 9.57198 | 2882 ft | 189 kts | 277° |
| 2026-04-26 22:59 | 51.41209 | 9.55100 | 2614 ft | 188 kts | 277° |
| 2026-04-26 22:59 | 51.41324 | 9.53018 | 2361 ft | 187 kts | 276° |
| 2026-04-26 22:59 | 51.41438 | 9.50950 | 2102 ft | 185 kts | 276° |
| 2026-04-26 23:00 | 51.41543 | 9.49007 | 1867 ft | 163 kts | 276° |
| 2026-04-26 23:00 | 51.41631 | 9.47365 | 1632 ft | 135 kts | 277° |
| 2026-04-26 23:00 | 51.41712 | 9.45962 | 1447 ft | 119 kts | 277° |
| 2026-04-26 23:00 | 51.41785 | 9.44640 | 1304 ft | 118 kts | 276° |
| 2026-04-26 23:01 | 51.41858 | 9.43307 | 1147 ft | 119 kts | 276° |
| 2026-04-26 23:01 | 51.41929 | 9.41978 | 969 ft | 118 kts | 276° |
| 2026-04-26 23:01 | 51.42001 | 9.40673 | 818 ft | 114 kts | 276° |
| 2026-04-26 23:01 | 51.42056 | 9.39715 | 830 ft | 39 kts | 275° |
| 2026-04-26 23:02 | 51.42071 | 9.39396 | 835 ft | 23 kts | 274° |
| 2026-04-26 23:02 | 51.42077 | 9.39180 | 839 ft | 15 kts | 271° |
| 2026-04-26 23:02 | 51.42086 | 9.39027 | 841 ft | 12 kts | 276° |
| 2026-04-26 23:02 | 51.42089 | 9.38911 | 843 ft | 6 kts | 250° |
| 2026-04-26 23:03 | 51.42051 | 9.38882 | 844 ft | 6 kts | 188° |
| 2026-04-26 23:03 | 51.42008 | 9.38876 | 844 ft | 6 kts | 184° |
| 2026-04-26 23:03 | 51.41965 | 9.38871 | 844 ft | 6 kts | 185° |
| 2026-04-26 23:03 | 51.41923 | 9.38867 | 845 ft | 6 kts | 182° |
| 2026-04-26 23:04 | 51.41886 | 9.38862 | 845 ft | 4 kts | 186° |
| 2026-04-26 23:04 | 51.41851 | 9.38856 | 846 ft | 5 kts | 188° |
| 2026-04-26 23:04 | 51.41811 | 9.38849 | 845 ft | 6 kts | 186° |
| 2026-04-26 23:04 | 51.41767 | 9.38843 | 845 ft | 6 kts | 186° |
| 2026-04-26 23:05 | 51.41719 | 9.38836 | 846 ft | 6 kts | 185° |
| 2026-04-26 23:05 | 51.41695 | 9.38821 | 845 ft | 1 kts | 257° |
| 2026-04-26 23:05 | 51.41697 | 9.38804 | 846 ft | 1 kts | 278° |
| 2026-04-26 23:05 | 51.41698 | 9.38778 | 846 ft | 2 kts | 274° |
| 2026-04-26 23:06 | 51.41700 | 9.38750 | 845 ft | 0 kts | 275° |
| 2026-04-26 23:06 | 51.41700 | 9.38751 | 845 ft | 0 kts | 275° |